sensor_id;sensor_type;location;lat;lon;timestamp;P1;durP1;ratioP1;P2;durP2;ratioP2
4812;SDS011;2420;51.202;8.698;2024-03-02T00:02:19;19.13;;;11.32;;
4812;SDS011;2420;51.202;8.698;2024-03-02T00:04:45;16.70;;;11.10;;
4812;SDS011;2420;51.202;8.698;2024-03-02T00:07:10;18.15;;;11.70;;
4812;SDS011;2420;51.202;8.698;2024-03-02T00:09:39;15.80;;;10.77;;
4812;SDS011;2420;51.202;8.698;2024-03-02T00:12:05;18.88;;;11.38;;
4812;SDS011;2420;51.202;8.698;2024-03-02T00:14:31;16.50;;;10.65;;
4812;SDS011;2420;51.202;8.698;2024-03-02T00:16:57;17.27;;;10.85;;
4812;SDS011;2420;51.202;8.698;2024-03-02T00:19:23;17.00;;;10.68;;
4812;SDS011;2420;51.202;8.698;2024-03-02T00:21:49;19.90;;;11.52;;
4812;SDS011;2420;51.202;8.698;2024-03-02T00:24:34;18.02;;;10.80;;
4812;SDS011;2420;51.202;8.698;2024-03-02T00:27:01;17.65;;;10.75;;
4812;SDS011;2420;51.202;8.698;2024-03-02T00:29:29;21.33;;;12.05;;
4812;SDS011;2420;51.202;8.698;2024-03-02T00:31:55;19.15;;;12.15;;
4812;SDS011;2420;51.202;8.698;2024-03-02T00:34:20;18.60;;;11.80;;
4812;SDS011;2420;51.202;8.698;2024-03-02T00:36:47;21.42;;;12.52;;
4812;SDS011;2420;51.202;8.698;2024-03-02T00:39:14;21.77;;;13.30;;
4812;SDS011;2420;51.202;8.698;2024-03-02T00:41:42;23.10;;;13.48;;
4812;SDS011;2420;51.202;8.698;2024-03-02T00:44:09;22.42;;;13.65;;
4812;SDS011;2420;51.202;8.698;2024-03-02T00:46:38;20.33;;;13.00;;
4812;SDS011;2420;51.202;8.698;2024-03-02T00:49:12;22.85;;;13.68;;
4812;SDS011;2420;51.202;8.698;2024-03-02T00:51:49;22.80;;;13.60;;
4812;SDS011;2420;51.202;8.698;2024-03-02T00:54:20;23.00;;;13.80;;
4812;SDS011;2420;51.202;8.698;2024-03-02T00:56:49;24.10;;;14.43;;
4812;SDS011;2420;51.202;8.698;2024-03-02T00:59:15;25.60;;;15.07;;
4812;SDS011;2420;51.202;8.698;2024-03-02T01:01:41;23.67;;;14.25;;
4812;SDS011;2420;51.202;8.698;2024-03-02T01:04:07;24.63;;;15.10;;
4812;SDS011;2420;51.202;8.698;2024-03-02T01:06:34;23.67;;;14.40;;
4812;SDS011;2420;51.202;8.698;2024-03-02T01:09:00;23.85;;;13.77;;
4812;SDS011;2420;51.202;8.698;2024-03-02T01:11:25;25.38;;;15.30;;
4812;SDS011;2420;51.202;8.698;2024-03-02T01:13:51;26.83;;;15.82;;
4812;SDS011;2420;51.202;8.698;2024-03-02T01:16:17;26.30;;;15.43;;
4812;SDS011;2420;51.202;8.698;2024-03-02T01:18:43;25.40;;;15.32;;
4812;SDS011;2420;51.202;8.698;2024-03-02T01:21:08;26.38;;;15.73;;
4812;SDS011;2420;51.202;8.698;2024-03-02T01:23:34;29.05;;;17.08;;
4812;SDS011;2420;51.202;8.698;2024-03-02T01:26:00;30.98;;;17.73;;
4812;SDS011;2420;51.202;8.698;2024-03-02T01:28:25;26.60;;;16.30;;
4812;SDS011;2420;51.202;8.698;2024-03-02T01:30:51;24.63;;;15.60;;
4812;SDS011;2420;51.202;8.698;2024-03-02T01:33:17;23.73;;;15.10;;
4812;SDS011;2420;51.202;8.698;2024-03-02T01:35:44;22.65;;;13.95;;
4812;SDS011;2420;51.202;8.698;2024-03-02T01:38:10;22.35;;;13.30;;
4812;SDS011;2420;51.202;8.698;2024-03-02T01:40:36;22.35;;;14.55;;
4812;SDS011;2420;51.202;8.698;2024-03-02T01:43:05;22.38;;;14.38;;
4812;SDS011;2420;51.202;8.698;2024-03-02T01:45:33;24.23;;;15.05;;
4812;SDS011;2420;51.202;8.698;2024-03-02T01:48:00;26.27;;;15.90;;
4812;SDS011;2420;51.202;8.698;2024-03-02T01:50:29;28.38;;;17.00;;
4812;SDS011;2420;51.202;8.698;2024-03-02T01:52:56;25.85;;;15.95;;
4812;SDS011;2420;51.202;8.698;2024-03-02T01:55:22;27.17;;;16.70;;
4812;SDS011;2420;51.202;8.698;2024-03-02T01:57:51;25.20;;;15.82;;
4812;SDS011;2420;51.202;8.698;2024-03-02T02:00:20;24.23;;;14.73;;
4812;SDS011;2420;51.202;8.698;2024-03-02T02:02:49;25.05;;;15.70;;
4812;SDS011;2420;51.202;8.698;2024-03-02T02:05:15;26.27;;;16.13;;
4812;SDS011;2420;51.202;8.698;2024-03-02T02:07:41;30.13;;;17.20;;
4812;SDS011;2420;51.202;8.698;2024-03-02T02:10:08;28.88;;;17.67;;
4812;SDS011;2420;51.202;8.698;2024-03-02T02:12:34;28.58;;;17.10;;
4812;SDS011;2420;51.202;8.698;2024-03-02T02:15:00;31.63;;;18.67;;
4812;SDS011;2420;51.202;8.698;2024-03-02T02:17:26;30.75;;;17.70;;
4812;SDS011;2420;51.202;8.698;2024-03-02T02:19:51;33.42;;;19.20;;
4812;SDS011;2420;51.202;8.698;2024-03-02T02:22:17;29.75;;;18.10;;
4812;SDS011;2420;51.202;8.698;2024-03-02T02:24:43;31.20;;;18.38;;
4812;SDS011;2420;51.202;8.698;2024-03-02T02:27:09;31.20;;;18.02;;
4812;SDS011;2420;51.202;8.698;2024-03-02T02:29:35;33.63;;;19.67;;
4812;SDS011;2420;51.202;8.698;2024-03-02T02:32:01;34.33;;;19.00;;
4812;SDS011;2420;51.202;8.698;2024-03-02T02:34:27;34.83;;;20.05;;
4812;SDS011;2420;51.202;8.698;2024-03-02T02:36:53;33.42;;;19.98;;
4812;SDS011;2420;51.202;8.698;2024-03-02T02:39:19;35.17;;;20.20;;
4812;SDS011;2420;51.202;8.698;2024-03-02T02:41:47;31.52;;;18.83;;
4812;SDS011;2420;51.202;8.698;2024-03-02T02:44:13;32.08;;;18.92;;
4812;SDS011;2420;51.202;8.698;2024-03-02T02:46:39;33.92;;;19.38;;
4812;SDS011;2420;51.202;8.698;2024-03-02T02:49:05;32.95;;;19.63;;
4812;SDS011;2420;51.202;8.698;2024-03-02T02:51:31;33.40;;;19.65;;
4812;SDS011;2420;51.202;8.698;2024-03-02T02:53:56;34.78;;;20.10;;
4812;SDS011;2420;51.202;8.698;2024-03-02T02:56:22;34.70;;;19.70;;
4812;SDS011;2420;51.202;8.698;2024-03-02T02:58:48;35.45;;;20.48;;
4812;SDS011;2420;51.202;8.698;2024-03-02T03:01:14;36.50;;;20.85;;
4812;SDS011;2420;51.202;8.698;2024-03-02T03:03:42;38.15;;;20.60;;
4812;SDS011;2420;51.202;8.698;2024-03-02T03:06:09;36.92;;;21.00;;
4812;SDS011;2420;51.202;8.698;2024-03-02T03:08:35;36.30;;;20.83;;
4812;SDS011;2420;51.202;8.698;2024-03-02T03:11:00;37.90;;;21.10;;
4812;SDS011;2420;51.202;8.698;2024-03-02T03:13:26;33.35;;;20.00;;
4812;SDS011;2420;51.202;8.698;2024-03-02T03:15:51;33.92;;;19.27;;
4812;SDS011;2420;51.202;8.698;2024-03-02T03:18:17;37.95;;;20.73;;
4812;SDS011;2420;51.202;8.698;2024-03-02T03:20:43;37.00;;;20.13;;
4812;SDS011;2420;51.202;8.698;2024-03-02T03:23:09;34.25;;;19.70;;
4812;SDS011;2420;51.202;8.698;2024-03-02T03:25:39;37.92;;;21.23;;
4812;SDS011;2420;51.202;8.698;2024-03-02T03:28:05;37.08;;;21.15;;
4812;SDS011;2420;51.202;8.698;2024-03-02T03:30:31;39.70;;;21.85;;
4812;SDS011;2420;51.202;8.698;2024-03-02T03:32:56;37.80;;;21.08;;
4812;SDS011;2420;51.202;8.698;2024-03-02T03:35:22;39.58;;;21.42;;
4812;SDS011;2420;51.202;8.698;2024-03-02T03:37:47;40.00;;;21.50;;
4812;SDS011;2420;51.202;8.698;2024-03-02T03:40:13;38.58;;;21.52;;
4812;SDS011;2420;51.202;8.698;2024-03-02T03:42:39;38.67;;;21.77;;
4812;SDS011;2420;51.202;8.698;2024-03-02T03:45:05;35.78;;;20.58;;
4812;SDS011;2420;51.202;8.698;2024-03-02T03:47:32;39.50;;;21.70;;
4812;SDS011;2420;51.202;8.698;2024-03-02T03:49:57;40.63;;;21.35;;
4812;SDS011;2420;51.202;8.698;2024-03-02T03:52:23;38.17;;;22.27;;
4812;SDS011;2420;51.202;8.698;2024-03-02T03:54:49;39.25;;;22.00;;
4812;SDS011;2420;51.202;8.698;2024-03-02T03:57:15;45.05;;;22.70;;
4812;SDS011;2420;51.202;8.698;2024-03-02T03:59:41;37.80;;;21.60;;
4812;SDS011;2420;51.202;8.698;2024-03-02T04:02:07;38.20;;;21.90;;
4812;SDS011;2420;51.202;8.698;2024-03-02T04:04:33;40.50;;;21.52;;
4812;SDS011;2420;51.202;8.698;2024-03-02T04:06:59;39.60;;;21.67;;
4812;SDS011;2420;51.202;8.698;2024-03-02T04:09:25;38.25;;;22.25;;
4812;SDS011;2420;51.202;8.698;2024-03-02T04:11:51;38.60;;;22.20;;
4812;SDS011;2420;51.202;8.698;2024-03-02T04:14:16;38.38;;;21.58;;
4812;SDS011;2420;51.202;8.698;2024-03-02T04:16:42;38.58;;;21.27;;
4812;SDS011;2420;51.202;8.698;2024-03-02T04:19:08;35.08;;;21.20;;
4812;SDS011;2420;51.202;8.698;2024-03-02T04:21:33;40.35;;;22.50;;
4812;SDS011;2420;51.202;8.698;2024-03-02T04:23:59;38.80;;;22.15;;
4812;SDS011;2420;51.202;8.698;2024-03-02T04:26:27;38.05;;;22.40;;
4812;SDS011;2420;51.202;8.698;2024-03-02T04:28:53;40.63;;;22.25;;
4812;SDS011;2420;51.202;8.698;2024-03-02T04:31:19;39.38;;;22.50;;
4812;SDS011;2420;51.202;8.698;2024-03-02T04:33:45;38.17;;;22.00;;
4812;SDS011;2420;51.202;8.698;2024-03-02T04:36:11;39.40;;;23.15;;
4812;SDS011;2420;51.202;8.698;2024-03-02T04:38:37;39.15;;;21.63;;
4812;SDS011;2420;51.202;8.698;2024-03-02T04:41:06;43.38;;;23.83;;
4812;SDS011;2420;51.202;8.698;2024-03-02T04:43:32;42.08;;;23.00;;
4812;SDS011;2420;51.202;8.698;2024-03-02T04:45:58;39.80;;;22.40;;
4812;SDS011;2420;51.202;8.698;2024-03-02T04:48:24;40.75;;;22.95;;
4812;SDS011;2420;51.202;8.698;2024-03-02T04:50:50;39.63;;;21.77;;
4812;SDS011;2420;51.202;8.698;2024-03-02T04:53:16;42.13;;;23.02;;
4812;SDS011;2420;51.202;8.698;2024-03-02T04:55:41;40.45;;;23.00;;
4812;SDS011;2420;51.202;8.698;2024-03-02T04:58:07;39.40;;;22.10;;
4812;SDS011;2420;51.202;8.698;2024-03-02T05:00:33;41.10;;;21.98;;
4812;SDS011;2420;51.202;8.698;2024-03-02T05:02:59;43.35;;;22.73;;
4812;SDS011;2420;51.202;8.698;2024-03-02T05:05:24;41.20;;;22.65;;
4812;SDS011;2420;51.202;8.698;2024-03-02T05:07:50;40.22;;;21.73;;
4812;SDS011;2420;51.202;8.698;2024-03-02T05:10:15;41.00;;;22.02;;
4812;SDS011;2420;51.202;8.698;2024-03-02T05:12:41;38.85;;;22.05;;
4812;SDS011;2420;51.202;8.698;2024-03-02T05:15:21;41.30;;;22.20;;
4812;SDS011;2420;51.202;8.698;2024-03-02T05:17:47;41.00;;;22.25;;
4812;SDS011;2420;51.202;8.698;2024-03-02T05:20:13;43.40;;;23.60;;
4812;SDS011;2420;51.202;8.698;2024-03-02T05:22:38;42.53;;;22.83;;
4812;SDS011;2420;51.202;8.698;2024-03-02T05:25:05;40.20;;;22.33;;
4812;SDS011;2420;51.202;8.698;2024-03-02T05:27:31;44.83;;;23.73;;
4812;SDS011;2420;51.202;8.698;2024-03-02T05:29:57;43.00;;;22.75;;
4812;SDS011;2420;51.202;8.698;2024-03-02T05:32:23;43.83;;;23.15;;
4812;SDS011;2420;51.202;8.698;2024-03-02T05:34:49;40.67;;;23.02;;
4812;SDS011;2420;51.202;8.698;2024-03-02T05:37:15;45.85;;;23.63;;
4812;SDS011;2420;51.202;8.698;2024-03-02T05:39:41;42.45;;;23.33;;
4812;SDS011;2420;51.202;8.698;2024-03-02T05:42:08;41.92;;;22.88;;
4812;SDS011;2420;51.202;8.698;2024-03-02T05:44:34;42.53;;;22.60;;
4812;SDS011;2420;51.202;8.698;2024-03-02T05:47:00;41.80;;;22.55;;
4812;SDS011;2420;51.202;8.698;2024-03-02T05:49:26;42.05;;;22.05;;
4812;SDS011;2420;51.202;8.698;2024-03-02T05:51:51;42.53;;;21.88;;
4812;SDS011;2420;51.202;8.698;2024-03-02T05:54:17;43.58;;;23.83;;
4812;SDS011;2420;51.202;8.698;2024-03-02T05:56:43;42.38;;;22.55;;
4812;SDS011;2420;51.202;8.698;2024-03-02T05:59:09;43.13;;;22.75;;
4812;SDS011;2420;51.202;8.698;2024-03-02T06:01:45;45.72;;;23.27;;
4812;SDS011;2420;51.202;8.698;2024-03-02T06:04:17;42.60;;;23.27;;
4812;SDS011;2420;51.202;8.698;2024-03-02T06:06:43;43.72;;;22.70;;
4812;SDS011;2420;51.202;8.698;2024-03-02T06:09:09;46.83;;;23.48;;
4812;SDS011;2420;51.202;8.698;2024-03-02T06:11:37;43.83;;;23.75;;
4812;SDS011;2420;51.202;8.698;2024-03-02T06:14:04;47.00;;;24.10;;
4812;SDS011;2420;51.202;8.698;2024-03-02T06:16:31;43.78;;;22.30;;
4812;SDS011;2420;51.202;8.698;2024-03-02T06:18:57;45.67;;;22.42;;
4812;SDS011;2420;51.202;8.698;2024-03-02T06:21:23;45.00;;;23.63;;
4812;SDS011;2420;51.202;8.698;2024-03-02T06:23:49;42.72;;;22.58;;
4812;SDS011;2420;51.202;8.698;2024-03-02T06:26:15;43.30;;;23.35;;
4812;SDS011;2420;51.202;8.698;2024-03-02T06:28:41;46.63;;;23.13;;
4812;SDS011;2420;51.202;8.698;2024-03-02T06:31:07;40.97;;;22.55;;
4812;SDS011;2420;51.202;8.698;2024-03-02T06:33:32;42.60;;;22.50;;
4812;SDS011;2420;51.202;8.698;2024-03-02T06:35:58;44.33;;;23.40;;
4812;SDS011;2420;51.202;8.698;2024-03-02T06:38:23;43.38;;;22.15;;
4812;SDS011;2420;51.202;8.698;2024-03-02T06:40:49;42.40;;;22.35;;
4812;SDS011;2420;51.202;8.698;2024-03-02T06:43:15;42.13;;;21.77;;
4812;SDS011;2420;51.202;8.698;2024-03-02T06:45:41;42.92;;;23.20;;
4812;SDS011;2420;51.202;8.698;2024-03-02T06:48:06;42.33;;;22.17;;
4812;SDS011;2420;51.202;8.698;2024-03-02T06:50:32;41.92;;;21.98;;
4812;SDS011;2420;51.202;8.698;2024-03-02T06:52:59;41.47;;;22.75;;
4812;SDS011;2420;51.202;8.698;2024-03-02T06:55:25;42.03;;;22.00;;
4812;SDS011;2420;51.202;8.698;2024-03-02T06:57:50;40.88;;;20.75;;
4812;SDS011;2420;51.202;8.698;2024-03-02T07:00:17;41.17;;;22.15;;
4812;SDS011;2420;51.202;8.698;2024-03-02T07:02:43;43.22;;;23.15;;
4812;SDS011;2420;51.202;8.698;2024-03-02T07:05:09;42.78;;;22.65;;
4812;SDS011;2420;51.202;8.698;2024-03-02T07:07:35;39.53;;;21.90;;
4812;SDS011;2420;51.202;8.698;2024-03-02T07:10:02;45.38;;;22.85;;
4812;SDS011;2420;51.202;8.698;2024-03-02T07:12:32;44.97;;;23.52;;
4812;SDS011;2420;51.202;8.698;2024-03-02T07:15:01;43.13;;;22.17;;
4812;SDS011;2420;51.202;8.698;2024-03-02T07:17:27;41.33;;;22.65;;
4812;SDS011;2420;51.202;8.698;2024-03-02T07:19:53;42.83;;;22.48;;
4812;SDS011;2420;51.202;8.698;2024-03-02T07:22:18;40.70;;;21.92;;
4812;SDS011;2420;51.202;8.698;2024-03-02T07:24:48;38.53;;;22.00;;
4812;SDS011;2420;51.202;8.698;2024-03-02T07:27:14;38.28;;;21.45;;
4812;SDS011;2420;51.202;8.698;2024-03-02T07:29:40;41.80;;;22.23;;
4812;SDS011;2420;51.202;8.698;2024-03-02T07:32:06;41.78;;;22.05;;
4812;SDS011;2420;51.202;8.698;2024-03-02T07:34:32;40.78;;;22.02;;
4812;SDS011;2420;51.202;8.698;2024-03-02T07:36:58;39.10;;;21.70;;
4812;SDS011;2420;51.202;8.698;2024-03-02T07:39:24;38.97;;;20.80;;
4812;SDS011;2420;51.202;8.698;2024-03-02T07:41:50;37.53;;;20.67;;
4812;SDS011;2420;51.202;8.698;2024-03-02T07:44:16;38.85;;;21.58;;
4812;SDS011;2420;51.202;8.698;2024-03-02T07:46:44;38.30;;;20.77;;
4812;SDS011;2420;51.202;8.698;2024-03-02T07:49:11;39.50;;;21.17;;
4812;SDS011;2420;51.202;8.698;2024-03-02T07:51:39;35.70;;;20.33;;
4812;SDS011;2420;51.202;8.698;2024-03-02T07:54:05;38.22;;;20.73;;
4812;SDS011;2420;51.202;8.698;2024-03-02T07:56:31;39.40;;;21.60;;
4812;SDS011;2420;51.202;8.698;2024-03-02T07:58:57;37.97;;;20.45;;
4812;SDS011;2420;51.202;8.698;2024-03-02T08:01:26;34.95;;;20.00;;
4812;SDS011;2420;51.202;8.698;2024-03-02T08:03:52;35.65;;;19.92;;
4812;SDS011;2420;51.202;8.698;2024-03-02T08:06:18;35.13;;;19.25;;
4812;SDS011;2420;51.202;8.698;2024-03-02T08:08:46;34.05;;;20.45;;
4812;SDS011;2420;51.202;8.698;2024-03-02T08:11:12;41.00;;;22.95;;
4812;SDS011;2420;51.202;8.698;2024-03-02T08:13:38;36.50;;;20.80;;
4812;SDS011;2420;51.202;8.698;2024-03-02T08:16:03;47.85;;;25.65;;
4812;SDS011;2420;51.202;8.698;2024-03-02T08:18:32;32.67;;;19.60;;
4812;SDS011;2420;51.202;8.698;2024-03-02T08:20:58;35.78;;;20.52;;
4812;SDS011;2420;51.202;8.698;2024-03-02T08:23:24;31.38;;;17.90;;
4812;SDS011;2420;51.202;8.698;2024-03-02T08:25:49;30.23;;;17.35;;
4812;SDS011;2420;51.202;8.698;2024-03-02T08:28:15;29.00;;;17.38;;
4812;SDS011;2420;51.202;8.698;2024-03-02T08:30:41;27.85;;;16.70;;
4812;SDS011;2420;51.202;8.698;2024-03-02T08:33:06;25.40;;;15.65;;
4812;SDS011;2420;51.202;8.698;2024-03-02T08:35:32;26.80;;;16.35;;
4812;SDS011;2420;51.202;8.698;2024-03-02T08:38:01;27.17;;;16.42;;
4812;SDS011;2420;51.202;8.698;2024-03-02T08:40:28;24.67;;;15.48;;
4812;SDS011;2420;51.202;8.698;2024-03-02T08:42:54;25.45;;;15.30;;
4812;SDS011;2420;51.202;8.698;2024-03-02T08:45:20;24.83;;;15.65;;
4812;SDS011;2420;51.202;8.698;2024-03-02T08:47:48;25.45;;;15.45;;
4812;SDS011;2420;51.202;8.698;2024-03-02T08:50:14;24.88;;;15.15;;
4812;SDS011;2420;51.202;8.698;2024-03-02T08:52:39;23.40;;;14.30;;
4812;SDS011;2420;51.202;8.698;2024-03-02T08:55:05;23.73;;;15.02;;
4812;SDS011;2420;51.202;8.698;2024-03-02T08:57:35;24.58;;;14.93;;
4812;SDS011;2420;51.202;8.698;2024-03-02T09:00:00;23.20;;;14.23;;
4812;SDS011;2420;51.202;8.698;2024-03-02T09:02:26;24.65;;;14.43;;
4812;SDS011;2420;51.202;8.698;2024-03-02T09:04:52;22.48;;;13.35;;
4812;SDS011;2420;51.202;8.698;2024-03-02T09:07:18;23.38;;;14.20;;
4812;SDS011;2420;51.202;8.698;2024-03-02T09:09:43;23.33;;;13.65;;
4812;SDS011;2420;51.202;8.698;2024-03-02T09:12:09;22.23;;;13.98;;
4812;SDS011;2420;51.202;8.698;2024-03-02T09:14:35;22.20;;;13.43;;
4812;SDS011;2420;51.202;8.698;2024-03-02T09:17:02;20.95;;;13.52;;
4812;SDS011;2420;51.202;8.698;2024-03-02T09:19:28;20.90;;;13.50;;
4812;SDS011;2420;51.202;8.698;2024-03-02T09:21:54;22.45;;;13.80;;
4812;SDS011;2420;51.202;8.698;2024-03-02T09:24:21;19.60;;;13.13;;
4812;SDS011;2420;51.202;8.698;2024-03-02T09:26:46;20.38;;;13.68;;
4812;SDS011;2420;51.202;8.698;2024-03-02T09:29:12;20.58;;;12.95;;
4812;SDS011;2420;51.202;8.698;2024-03-02T09:31:41;17.70;;;11.85;;
4812;SDS011;2420;51.202;8.698;2024-03-02T09:34:07;21.02;;;13.35;;
4812;SDS011;2420;51.202;8.698;2024-03-02T09:36:33;19.27;;;12.40;;
4812;SDS011;2420;51.202;8.698;2024-03-02T09:38:59;17.50;;;10.50;;
4812;SDS011;2420;51.202;8.698;2024-03-02T09:41:24;17.55;;;10.98;;
4812;SDS011;2420;51.202;8.698;2024-03-02T09:43:50;18.33;;;10.93;;
4812;SDS011;2420;51.202;8.698;2024-03-02T09:46:16;17.48;;;10.50;;
4812;SDS011;2420;51.202;8.698;2024-03-02T09:48:43;15.63;;;10.90;;
4812;SDS011;2420;51.202;8.698;2024-03-02T09:51:09;17.65;;;10.80;;
4812;SDS011;2420;51.202;8.698;2024-03-02T09:53:36;16.88;;;10.40;;
4812;SDS011;2420;51.202;8.698;2024-03-02T09:56:02;13.13;;;9.85;;
4812;SDS011;2420;51.202;8.698;2024-03-02T09:58:28;15.95;;;9.82;;
4812;SDS011;2420;51.202;8.698;2024-03-02T10:00:54;14.75;;;9.88;;
4812;SDS011;2420;51.202;8.698;2024-03-02T10:03:20;15.88;;;9.85;;
4812;SDS011;2420;51.202;8.698;2024-03-02T10:05:51;12.98;;;9.55;;
4812;SDS011;2420;51.202;8.698;2024-03-02T10:08:17;14.45;;;9.65;;
4812;SDS011;2420;51.202;8.698;2024-03-02T10:10:43;13.95;;;9.55;;
4812;SDS011;2420;51.202;8.698;2024-03-02T10:13:09;13.88;;;9.15;;
4812;SDS011;2420;51.202;8.698;2024-03-02T10:15:36;13.25;;;9.60;;
4812;SDS011;2420;51.202;8.698;2024-03-02T10:18:03;16.83;;;9.90;;
4812;SDS011;2420;51.202;8.698;2024-03-02T10:20:29;13.63;;;9.25;;
4812;SDS011;2420;51.202;8.698;2024-03-02T10:23:09;16.25;;;9.10;;
4812;SDS011;2420;51.202;8.698;2024-03-02T10:25:38;12.15;;;8.57;;
4812;SDS011;2420;51.202;8.698;2024-03-02T10:28:04;14.60;;;9.00;;
4812;SDS011;2420;51.202;8.698;2024-03-02T10:30:33;11.32;;;8.23;;
4812;SDS011;2420;51.202;8.698;2024-03-02T10:32:59;13.20;;;9.63;;
4812;SDS011;2420;51.202;8.698;2024-03-02T10:35:26;10.77;;;8.10;;
4812;SDS011;2420;51.202;8.698;2024-03-02T10:37:52;13.82;;;8.15;;
4812;SDS011;2420;51.202;8.698;2024-03-02T10:40:21;13.35;;;7.97;;
4812;SDS011;2420;51.202;8.698;2024-03-02T10:42:47;12.30;;;8.73;;
4812;SDS011;2420;51.202;8.698;2024-03-02T10:45:15;13.82;;;8.13;;
4812;SDS011;2420;51.202;8.698;2024-03-02T10:47:42;12.95;;;8.63;;
4812;SDS011;2420;51.202;8.698;2024-03-02T10:50:09;13.80;;;9.27;;
4812;SDS011;2420;51.202;8.698;2024-03-02T10:52:35;10.15;;;7.40;;
4812;SDS011;2420;51.202;8.698;2024-03-02T10:55:01;10.75;;;8.15;;
4812;SDS011;2420;51.202;8.698;2024-03-02T10:57:31;10.50;;;7.90;;
4812;SDS011;2420;51.202;8.698;2024-03-02T11:00:04;10.50;;;7.40;;
4812;SDS011;2420;51.202;8.698;2024-03-02T11:02:32;12.48;;;7.80;;
4812;SDS011;2420;51.202;8.698;2024-03-02T11:05:03;10.68;;;6.90;;
4812;SDS011;2420;51.202;8.698;2024-03-02T11:07:32;9.10;;;6.90;;
4812;SDS011;2420;51.202;8.698;2024-03-02T11:10:00;10.27;;;7.13;;
4812;SDS011;2420;51.202;8.698;2024-03-02T11:12:35;13.18;;;7.28;;
4812;SDS011;2420;51.202;8.698;2024-03-02T11:15:04;9.40;;;7.15;;
4812;SDS011;2420;51.202;8.698;2024-03-02T11:17:35;9.98;;;6.40;;
4812;SDS011;2420;51.202;8.698;2024-03-02T11:20:03;8.55;;;6.15;;
4812;SDS011;2420;51.202;8.698;2024-03-02T11:22:29;10.77;;;6.57;;
4812;SDS011;2420;51.202;8.698;2024-03-02T11:24:55;9.52;;;6.70;;
4812;SDS011;2420;51.202;8.698;2024-03-02T11:30:48;8.27;;;5.72;;
4812;SDS011;2420;51.202;8.698;2024-03-02T11:33:03;9.30;;;6.35;;
4812;SDS011;2420;51.202;8.698;2024-03-02T11:35:42;8.07;;;6.07;;
4812;SDS011;2420;51.202;8.698;2024-03-02T11:38:09;8.05;;;6.15;;
4812;SDS011;2420;51.202;8.698;2024-03-02T11:40:35;9.38;;;6.00;;
4812;SDS011;2420;51.202;8.698;2024-03-02T11:43:00;9.93;;;5.93;;
4812;SDS011;2420;51.202;8.698;2024-03-02T11:45:27;8.23;;;5.68;;
4812;SDS011;2420;51.202;8.698;2024-03-02T11:47:57;7.40;;;5.45;;
4812;SDS011;2420;51.202;8.698;2024-03-02T11:53:11;8.75;;;5.80;;
4812;SDS011;2420;51.202;8.698;2024-03-02T11:55:38;6.60;;;5.10;;
4812;SDS011;2420;51.202;8.698;2024-03-02T11:58:11;8.82;;;5.70;;
4812;SDS011;2420;51.202;8.698;2024-03-02T12:00:37;7.47;;;5.13;;
4812;SDS011;2420;51.202;8.698;2024-03-02T12:03:07;5.75;;;4.43;;
4812;SDS011;2420;51.202;8.698;2024-03-02T12:05:35;7.95;;;5.05;;
4812;SDS011;2420;51.202;8.698;2024-03-02T12:08:01;6.00;;;4.70;;
4812;SDS011;2420;51.202;8.698;2024-03-02T12:10:30;7.32;;;4.55;;
4812;SDS011;2420;51.202;8.698;2024-03-02T12:13:00;7.95;;;5.00;;
4812;SDS011;2420;51.202;8.698;2024-03-02T12:15:31;7.55;;;4.82;;
4812;SDS011;2420;51.202;8.698;2024-03-02T12:17:58;6.65;;;4.25;;
4812;SDS011;2420;51.202;8.698;2024-03-02T12:20:26;6.32;;;4.15;;
4812;SDS011;2420;51.202;8.698;2024-03-02T12:22:54;6.07;;;4.28;;
4812;SDS011;2420;51.202;8.698;2024-03-02T12:25:21;7.45;;;4.20;;
4812;SDS011;2420;51.202;8.698;2024-03-02T12:27:49;5.50;;;4.00;;
4812;SDS011;2420;51.202;8.698;2024-03-02T12:30:19;5.43;;;4.00;;
4812;SDS011;2420;51.202;8.698;2024-03-02T12:32:45;6.43;;;4.07;;
4812;SDS011;2420;51.202;8.698;2024-03-02T12:35:11;5.00;;;3.53;;
4812;SDS011;2420;51.202;8.698;2024-03-02T12:37:47;5.50;;;3.95;;
4812;SDS011;2420;51.202;8.698;2024-03-02T12:40:13;5.65;;;4.50;;
4812;SDS011;2420;51.202;8.698;2024-03-02T12:42:40;7.53;;;4.78;;
4812;SDS011;2420;51.202;8.698;2024-03-02T12:45:08;6.32;;;4.43;;
4812;SDS011;2420;51.202;8.698;2024-03-02T12:47:35;6.40;;;4.65;;
4812;SDS011;2420;51.202;8.698;2024-03-02T12:50:01;6.22;;;4.63;;
4812;SDS011;2420;51.202;8.698;2024-03-02T12:52:28;5.75;;;4.25;;
4812;SDS011;2420;51.202;8.698;2024-03-02T12:54:54;9.85;;;6.25;;
4812;SDS011;2420;51.202;8.698;2024-03-02T12:57:26;8.43;;;4.68;;
4812;SDS011;2420;51.202;8.698;2024-03-02T12:59:57;5.28;;;4.15;;
4812;SDS011;2420;51.202;8.698;2024-03-02T13:02:26;7.18;;;3.95;;
4812;SDS011;2420;51.202;8.698;2024-03-02T13:04:53;5.35;;;4.13;;
4812;SDS011;2420;51.202;8.698;2024-03-02T13:07:19;12.18;;;5.63;;
4812;SDS011;2420;51.202;8.698;2024-03-02T13:09:47;8.27;;;5.03;;
4812;SDS011;2420;51.202;8.698;2024-03-02T13:12:14;6.50;;;4.88;;
4812;SDS011;2420;51.202;8.698;2024-03-02T13:14:41;7.22;;;5.28;;
4812;SDS011;2420;51.202;8.698;2024-03-02T13:17:07;7.35;;;4.20;;
4812;SDS011;2420;51.202;8.698;2024-03-02T13:19:34;9.57;;;4.20;;
4812;SDS011;2420;51.202;8.698;2024-03-02T13:21:59;5.53;;;3.80;;
4812;SDS011;2420;51.202;8.698;2024-03-02T13:24:27;4.93;;;3.90;;
4812;SDS011;2420;51.202;8.698;2024-03-02T13:26:55;4.38;;;3.38;;
4812;SDS011;2420;51.202;8.698;2024-03-02T13:29:23;5.93;;;3.72;;
4812;SDS011;2420;51.202;8.698;2024-03-02T13:31:49;6.50;;;4.03;;
4812;SDS011;2420;51.202;8.698;2024-03-02T13:34:15;4.97;;;3.65;;
4812;SDS011;2420;51.202;8.698;2024-03-02T13:36:41;4.13;;;3.22;;
4812;SDS011;2420;51.202;8.698;2024-03-02T13:39:06;6.88;;;4.22;;
4812;SDS011;2420;51.202;8.698;2024-03-02T13:41:35;5.28;;;3.47;;
4812;SDS011;2420;51.202;8.698;2024-03-02T13:44:00;5.22;;;3.50;;
4812;SDS011;2420;51.202;8.698;2024-03-02T13:46:26;4.63;;;3.20;;
4812;SDS011;2420;51.202;8.698;2024-03-02T13:48:52;5.95;;;3.65;;
4812;SDS011;2420;51.202;8.698;2024-03-02T13:51:19;5.18;;;3.53;;
4812;SDS011;2420;51.202;8.698;2024-03-02T13:53:44;4.70;;;3.55;;
4812;SDS011;2420;51.202;8.698;2024-03-02T13:56:10;4.55;;;3.00;;
4812;SDS011;2420;51.202;8.698;2024-03-02T13:58:36;3.92;;;2.92;;
4812;SDS011;2420;51.202;8.698;2024-03-02T14:01:02;4.88;;;3.25;;
4812;SDS011;2420;51.202;8.698;2024-03-02T14:03:29;6.03;;;2.78;;
4812;SDS011;2420;51.202;8.698;2024-03-02T14:05:55;3.47;;;2.53;;
4812;SDS011;2420;51.202;8.698;2024-03-02T14:08:21;5.18;;;3.00;;
4812;SDS011;2420;51.202;8.698;2024-03-02T14:10:47;2.60;;;2.10;;
4812;SDS011;2420;51.202;8.698;2024-03-02T14:13:12;4.57;;;2.00;;
4812;SDS011;2420;51.202;8.698;2024-03-02T14:15:38;4.13;;;2.80;;
4812;SDS011;2420;51.202;8.698;2024-03-02T14:18:05;3.28;;;2.60;;
4812;SDS011;2420;51.202;8.698;2024-03-02T14:20:31;2.70;;;2.20;;
4812;SDS011;2420;51.202;8.698;2024-03-02T14:22:58;3.33;;;2.50;;
4812;SDS011;2420;51.202;8.698;2024-03-02T14:25:27;3.08;;;2.15;;
4812;SDS011;2420;51.202;8.698;2024-03-02T14:27:56;3.60;;;2.47;;
4812;SDS011;2420;51.202;8.698;2024-03-02T14:30:22;4.22;;;2.50;;
4812;SDS011;2420;51.202;8.698;2024-03-02T14:32:48;3.13;;;2.35;;
4812;SDS011;2420;51.202;8.698;2024-03-02T14:35:14;3.38;;;2.45;;
4812;SDS011;2420;51.202;8.698;2024-03-02T14:37:40;2.97;;;2.30;;
4812;SDS011;2420;51.202;8.698;2024-03-02T14:40:06;3.13;;;2.50;;
4812;SDS011;2420;51.202;8.698;2024-03-02T14:42:34;2.78;;;2.20;;
4812;SDS011;2420;51.202;8.698;2024-03-02T14:45:00;2.53;;;2.28;;
4812;SDS011;2420;51.202;8.698;2024-03-02T14:47:28;2.70;;;2.20;;
4812;SDS011;2420;51.202;8.698;2024-03-02T14:49:54;2.63;;;2.10;;
4812;SDS011;2420;51.202;8.698;2024-03-02T14:52:20;3.35;;;2.00;;
4812;SDS011;2420;51.202;8.698;2024-03-02T14:54:46;2.90;;;2.00;;
4812;SDS011;2420;51.202;8.698;2024-03-02T14:57:12;2.85;;;2.08;;
4812;SDS011;2420;51.202;8.698;2024-03-02T14:59:38;2.70;;;1.90;;